Terminal Aerodrome Forecast
Issued by NWS Pendleton, OR

Home | Current Version | Previous Version | Text Only | Print | Product List | Glossary On
Versions: 1 2 3 4 5 6 7 8 9 10 11 12 13 14 15 16 17
000
FTUS46 KPDT 251720
TAFPDT
TAF
KPDT 251720Z 2518/2618 28008KT P6SM VCSH BKN100 OVC250
     FM260200 26015G25KT P6SM -SHRA BKN050 OVC080
     FM260900 26014KT P6SM OVC080
     FM261600 25014G20KT P6SM OVC100=

USA.gov is the U.S. government's official web portal to all federal, state and local government web resources and services.